Luna, Louisiana
Current Conditions -  °F | °C
As of 8:53 PM on Monday 22 Dec 2014 (Local Time) from KMLU Reporting Station
Haze Haze  
Wind Chill: 58°   Ceiling: 6000
Heat Index: 58°   Visibility: 6mi
Dew Point: 58°   Wind: 3mph
Humidity: 100%   Direction: 220°SW
Pressure: 29.66"   Gusts: NA
Location:  32.3932°N, 92.2204°W
Report Text: KMLU 230253Z 22003KT 6SM BR BKN060 OVC075 14/14 A2966 RMK AO2 SLP043 T01440144 53014
Loading
Personal Weather Stations






























Interactive Weather Map New forecast layout! Learn more

10-Day Weather Forecast

Advertisements
Track Severe Weather on mobile